Aberdeen, Idaho
Current Conditions -  °F | °C
As of 3:53 PM on Thursday 18 Dec 2014 (Local Time) from KPIH Reporting Station
Broken Clouds Broken Clouds  
Wind Chill: 38°   Ceiling: 6000
Heat Index: 38°   Visibility: 10mi
Dew Point: 32°   Wind: 3mph
Humidity: 79%   Direction: 70°ENE
Pressure: 30.12"   Gusts: NA
Location:  42.94°N, 112.84°W
Report Text: KPIH 182253Z 07003KT 10SM BKN060 03/00 A3012 RMK AO2 SLP225 T00330000
Loading
Personal Weather Stations






























Interactive Weather Map New forecast layout! Learn more

10-Day Weather Forecast

Advertisements
Track Severe Weather on mobile